Time;durP1;ratioP1;P1;durP2;ratioP2;P2;SDS_P1;SDS_P2;PMS_P1;PMS_P2;Temp;Humidity;BMP_temperature;BMP_pressure;BME280_temperature;BME280_humidity;BME280_pressure;Samples;Min_cycle;Max_cycle;Signal;HPM_P1;HPM_P2
2022/12/17 13:06:51;;;;;;;50.03;20.98;;;0.50;99.90;;;;;;6184571;23;20025;-83
2022/12/17 13:09:21;;;;;;;49.47;20.55;;;0.50;99.90;;;;;;6133826;23;20689;-84
2022/12/17 13:11:48;;;;;;;43.60;17.60;;;0.40;99.90;;;;;;6183989;23;20017;-83
2022/12/17 13:14:43;;;;;;;51.35;21.55;;;0.40;99.90;;;;;;6155715;23;20087;-82
2022/12/17 13:17:15;;;;;;;55.88;21.60;;;0.40;99.90;;;;;;6183403;23;20016;-84
2022/12/17 13:19:57;;;;;;;52.70;22.00;;;0.40;99.90;;;;;;6157791;23;20013;-83
2022/12/17 13:22:22;;;;;;;;;;;0.50;99.90;;;;;;6184622;23;20013;-83
2022/12/17 13:24:54;;;;;;;51.00;21.77;;;0.40;99.90;;;;;;6155833;23;19954;-82
2022/12/17 13:27:39;;;;;;;48.83;19.75;;;0.50;99.90;;;;;;6131649;23;20024;-84
2022/12/17 13:30:16;;;;;;;55.78;22.85;;;0.40;99.90;;;;;;6156338;23;20780;-82
2022/12/17 13:32:57;;;;;;;54.70;22.77;;;0.40;99.90;;;;;;6195756;23;20094;-84
2022/12/17 13:35:55;;;;;;;52.00;21.65;;;0.40;99.90;;;;;;6163658;23;20465;-84
2022/12/17 13:38:40;;;;;;;51.15;21.83;;;0.40;99.90;;;;;;6187536;23;20072;-84
2022/12/17 13:41:17;;;;;;;53.33;23.15;;;0.40;99.90;;;;;;6184994;23;20362;-84
2022/12/17 13:43:43;;;;;;;53.92;21.83;;;0.40;99.90;;;;;;6186668;23;20008;-85
2022/12/17 13:46:19;;;;;;;51.85;19.85;;;0.40;99.90;;;;;;6185416;23;20027;-84
2022/12/17 13:48:57;;;;;;;51.53;20.67;;;0.40;99.90;;;;;;6187963;23;20020;-84
2022/12/17 13:51:26;;;;;;;48.42;19.58;;;0.30;99.90;;;;;;6188744;23;20043;-84
2022/12/17 13:53:54;;;;;;;42.50;17.75;;;0.30;99.90;;;;;;6188065;23;20009;-82
2022/12/17 13:56:26;;;;;;;47.00;17.33;;;0.30;99.90;;;;;;6194825;23;20013;-90
2022/12/17 13:58:54;;;;;;;49.55;20.27;;;0.20;99.90;;;;;;6172290;23;20026;-90
2022/12/17 14:01:20;;;;;;;45.47;19.13;;;0.20;99.90;;;;;;6190482;23;20453;-93
2022/12/17 14:03:52;;;;;;;46.22;18.33;;;0.20;99.90;;;;;;6166390;23;20092;-92
2022/12/17 14:06:18;;;;;;;46.75;18.40;;;0.20;99.90;;;;;;6189404;23;20013;-92
2022/12/17 14:08:46;;;;;;;53.03;21.45;;;0.20;99.90;;;;;;6219016;23;20063;-89
2022/12/17 14:13:56;;;;;;;46.30;18.40;;;0.20;99.90;;;;;;6188716;23;20017;-91
2022/12/17 14:16:22;;;;;;;45.45;17.90;;;0.10;99.90;;;;;;6163642;23;20092;-91
2022/12/17 14:18:52;;;;;;;54.00;20.30;;;0.10;99.90;;;;;;6164480;23;20010;-91
2022/12/17 14:21:18;;;;;;;59.40;20.63;;;0.10;99.90;;;;;;6189264;23;20016;-91
2022/12/17 14:23:46;;;;;;;57.85;21.85;;;0.10;99.90;;;;;;6189205;23;20499;-89
2022/12/17 14:26:12;;;;;;;55.17;21.67;;;0.10;99.90;;;;;;6186462;23;20154;-91
2022/12/17 14:28:53;;;;;;;54.83;22.08;;;0.10;99.90;;;;;;6189812;23;20012;-90
2022/12/17 14:31:27;;;;;;;51.22;20.50;;;0.00;99.90;;;;;;6214068;23;20036;-91
2022/12/17 14:34:09;;;;;;;53.95;22.30;;;0.00;99.90;;;;;;6188890;23;20021;-89
2022/12/17 14:36:38;;;;;;;48.45;18.50;;;0.00;99.90;;;;;;6163824;23;20025;-90
2022/12/17 14:39:23;;;;;;;49.88;19.08;;;0.00;99.90;;;;;;6187572;23;20500;-91
2022/12/17 14:44:36;;;;;;;48.75;19.98;;;-0.10;99.90;;;;;;6188434;23;20013;-89
2022/12/17 14:47:21;;;;;;;48.55;20.30;;;-0.10;99.90;;;;;;6187905;23;20039;-89
2022/12/17 14:49:56;;;;;;;56.78;19.42;;;-0.10;99.90;;;;;;6188777;23;20013;-90
2022/12/17 14:52:33;;;;;;;53.15;19.50;;;-0.10;99.90;;;;;;6187260;23;20091;-89
2022/12/17 14:55:00;;;;;;;53.95;21.08;;;-0.20;99.90;;;;;;6187515;23;20039;-90
2022/12/17 14:57:26;;;;;;;52.33;19.48;;;-0.20;99.90;;;;;;6189227;23;20372;-89
2022/12/17 14:59:52;;;;;;;48.03;20.23;;;-0.20;99.90;;;;;;6188425;23;20031;-91
2022/12/17 15:02:22;;;;;;;50.80;18.17;;;-0.30;99.90;;;;;;6188161;23;20092;-88
2022/12/17 15:04:49;;;;;;;55.95;18.52;;;-0.30;99.90;;;;;;6163895;23;20012;-89
2022/12/17 15:07:22;;;;;;;48.45;19.15;;;-0.30;99.90;;;;;;6216341;23;20511;-90
2022/12/17 15:09:47;;;;;;;55.72;20.73;;;-0.40;99.90;;;;;;6163705;23;20012;-89
2022/12/17 15:12:13;;;;;;;44.95;16.13;;;-0.40;99.90;;;;;;6163885;23;20341;-91
2022/12/17 15:14:39;;;;;;;50.30;20.15;;;-0.50;99.90;;;;;;6189092;23;20369;-90
2022/12/17 15:17:04;;;;;;;48.55;19.85;;;-0.50;99.90;;;;;;6217343;23;20024;-91
2022/12/17 15:19:30;;;;;;;48.35;19.15;;;-0.50;99.90;;;;;;6170293;23;20024;-90
2022/12/17 15:21:56;;;;;;;48.40;19.48;;;-0.50;99.90;;;;;;6187887;23;20062;-90
2022/12/17 15:24:21;;;;;;;50.78;18.65;;;-0.50;99.90;;;;;;6187760;23;20096;-89
2022/12/17 15:26:47;;;;;;;52.63;18.23;;;-0.60;99.90;;;;;;6187954;23;20012;-89
2022/12/17 15:29:13;;;;;;;45.90;17.50;;;-0.60;99.90;;;;;;6214371;23;20091;-91
2022/12/17 15:31:39;;;;;;;50.55;19.15;;;-0.60;99.90;;;;;;6188548;23;20020;-91
2022/12/17 15:34:05;;;;;;;56.70;20.98;;;-0.60;99.90;;;;;;6213908;23;20012;-89
2022/12/17 15:36:31;;;;;;;53.17;20.38;;;-0.70;99.90;;;;;;6213305;23;20074;-88
2022/12/17 15:38:57;;;;;;;54.25;21.90;;;-0.70;99.90;;;;;;6187810;23;20024;-89
2022/12/17 15:44:08;;;;;;;55.38;21.83;;;-0.70;99.90;;;;;;6197273;23;20112;-89
2022/12/17 15:46:34;;;;;;;49.75;20.17;;;-0.70;99.90;;;;;;6170920;23;20012;-89
2022/12/17 15:48:59;;;;;;;50.70;16.75;;;-0.80;99.90;;;;;;6187929;23;20024;-89
2022/12/17 15:51:25;;;;;;;54.25;19.23;;;-0.80;99.90;;;;;;6187269;23;20093;-89
2022/12/17 15:53:51;;;;;;;50.28;16.75;;;-0.80;99.90;;;;;;6214806;23;20059;-89
2022/12/17 15:56:23;;;;;;;48.58;17.17;;;-0.80;99.90;;;;;;6187278;23;20087;-89
2022/12/17 15:58:49;;;;;;;42.92;16.17;;;-0.80;99.90;;;;;;6186718;23;20009;-89
2022/12/17 16:01:15;;;;;;;45.72;16.45;;;-0.90;99.90;;;;;;6187982;23;20016;-88
2022/12/17 16:03:41;;;;;;;42.92;15.85;;;-0.90;99.90;;;;;;6188445;23;20472;-89
2022/12/17 16:06:06;;;;;;;40.70;15.40;;;-0.90;99.90;;;;;;6213946;23;20008;-88
2022/12/17 16:08:32;;;;;;;52.90;18.80;;;-0.90;99.90;;;;;;6214886;23;20696;-89
2022/12/17 16:10:58;;;;;;;41.03;16.05;;;-0.90;99.90;;;;;;6187366;23;20023;-90
2022/12/17 16:13:24;;;;;;;47.75;17.60;;;-0.90;99.90;;;;;;6188141;23;20082;-89
2022/12/17 16:16:02;;;;;;;49.22;18.48;;;-1.00;99.90;;;;;;6188370;23;20075;-89
2022/12/17 16:18:28;;;;;;;47.65;18.08;;;-0.90;99.90;;;;;;6162911;23;20071;-89
2022/12/17 16:20:53;;;;;;;43.97;15.45;;;-1.00;99.90;;;;;;6163296;23;20353;-89
2022/12/17 16:23:20;;;;;;;49.42;16.80;;;-1.00;99.90;;;;;;6187499;23;20012;-88
2022/12/17 16:25:58;;;;;;;40.25;15.10;;;-1.00;99.90;;;;;;6186748;23;20016;-88
2022/12/17 16:28:25;;;;;;;52.53;20.05;;;-1.00;99.90;;;;;;6188079;23;20096;-89
2022/12/17 16:31:03;;;;;;;49.10;18.13;;;-1.00;99.90;;;;;;6187835;23;20019;-89
2022/12/17 16:33:37;;;;;;;49.47;19.40;;;-1.00;99.90;;;;;;6214069;23;20449;-89
2022/12/17 16:36:05;;;;;;;56.30;18.10;;;-1.10;99.90;;;;;;6162635;23;20071;-89
2022/12/17 16:38:31;;;;;;;58.50;20.83;;;-1.00;99.90;;;;;;6164645;23;20396;-88
2022/12/17 16:40:58;;;;;;;55.28;20.70;;;-1.00;99.90;;;;;;6188677;23;20039;-88
2022/12/17 16:43:25;;;;;;;47.03;16.90;;;-1.10;99.90;;;;;;6216138;23;20135;-90
2022/12/17 16:45:52;;;;;;;44.60;16.38;;;-1.10;99.90;;;;;;6189049;23;20430;-88
2022/12/17 16:48:19;;;;;;;41.97;15.52;;;-1.10;99.90;;;;;;6189429;23;20038;-91
2022/12/17 16:50:45;;;;;;;52.00;17.90;;;-1.10;99.90;;;;;;6189561;23;20016;-88
2022/12/17 16:53:12;;;;;;;48.50;16.30;;;-1.20;99.90;;;;;;6189336;23;20017;-89
2022/12/17 16:55:48;;;;;;;55.28;18.35;;;-1.20;99.90;;;;;;6215826;23;20346;-88
2022/12/17 16:58:15;;;;;;;56.95;19.60;;;-1.20;99.90;;;;;;6189353;23;20091;-88
2022/12/17 17:00:40;;;;;;;60.38;20.05;;;-1.10;99.90;;;;;;6190141;23;20017;-89
2022/12/17 17:03:07;;;;;;;52.70;18.20;;;-1.10;99.90;;;;;;6164241;23;20008;-89
2022/12/17 17:05:35;;;;;;;58.33;20.38;;;-1.10;99.90;;;;;;6216857;23;20009;-88
2022/12/17 17:08:01;;;;;;;52.88;17.45;;;-1.10;99.90;;;;;;6189683;23;20016;-88
2022/12/17 17:10:27;;;;;;;48.97;17.75;;;-1.10;99.90;;;;;;6163147;23;20012;-89
2022/12/17 17:12:54;;;;;;;54.95;18.67;;;-1.10;99.90;;;;;;6189497;23;20456;-89
2022/12/17 17:15:21;;;;;;;52.65;19.02;;;-1.10;99.90;;;;;;6214630;23;20099;-89
2022/12/17 17:17:47;;;;;;;56.30;19.10;;;-1.10;99.90;;;;;;6216551;23;20013;-89
2022/12/17 17:20:13;;;;;;;51.80;19.20;;;-1.10;99.90;;;;;;6189669;23;20016;-89
2022/12/17 17:22:39;;;;;;;51.65;19.33;;;-1.10;99.90;;;;;;6189697;23;20606;-89
2022/12/17 17:25:05;;;;;;;56.67;19.25;;;-1.10;99.90;;;;;;6187326;23;20013;-88
2022/12/17 17:27:31;;;;;;;50.00;18.85;;;-1.10;99.90;;;;;;6190068;23;20021;-89
2022/12/17 17:29:57;;;;;;;56.60;20.02;;;-1.10;99.90;;;;;;6171392;23;20020;-89
2022/12/17 17:32:23;;;;;;;58.70;20.08;;;-1.20;99.90;;;;;;6226674;23;20013;-89
2022/12/17 17:34:49;;;;;;;48.80;18.65;;;-1.20;99.90;;;;;;6195097;23;20017;-88
2022/12/17 17:37:15;;;;;;;45.83;18.42;;;-1.20;99.90;;;;;;6190843;23;20016;-90
2022/12/17 17:39:41;;;;;;;50.97;20.35;;;-1.30;99.90;;;;;;6166348;23;20084;-89
2022/12/17 17:42:06;;;;;;;52.78;19.70;;;-1.30;99.90;;;;;;6190518;23;20393;-88
2022/12/17 17:44:32;;;;;;;49.92;20.15;;;-1.30;99.90;;;;;;6219650;23;20385;-89
2022/12/17 17:46:58;;;;;;;46.15;18.05;;;-1.30;99.90;;;;;;6190952;23;20092;-88
2022/12/17 17:49:24;;;;;;;43.08;15.90;;;-1.30;99.90;;;;;;6167342;23;20051;-89
2022/12/17 17:51:50;;;;;;;47.67;17.95;;;-1.40;99.90;;;;;;6223963;23;20026;-89
2022/12/17 17:54:15;;;;;;;52.20;20.30;;;-1.40;99.90;;;;;;6171493;23;20068;-87
2022/12/17 17:56:42;;;;;;;54.13;20.88;;;-1.40;99.90;;;;;;6198886;23;20346;-87
2022/12/17 17:59:11;;;;;;;53.20;19.95;;;-1.40;99.90;;;;;;6202972;23;20040;-88
2022/12/17 18:01:42;;;;;;;45.15;16.33;;;-1.40;99.90;;;;;;6231160;23;20009;-88
2022/12/17 18:04:11;;;;;;;52.55;20.83;;;-1.40;99.90;;;;;;6204876;23;20048;-87
2022/12/17 18:06:39;;;;;;;42.22;18.60;;;-1.40;99.90;;;;;;6229344;23;20012;-88
2022/12/17 18:09:05;;;;;;;54.05;19.63;;;-1.40;99.90;;;;;;6209389;23;20020;-87
2022/12/17 18:11:31;;;;;;;44.05;18.00;;;-1.40;99.90;;;;;;6234227;23;20084;-88
2022/12/17 18:13:59;;;;;;;45.35;16.98;;;-1.40;99.90;;;;;;6208599;23;20000;-88
2022/12/17 18:16:47;;;;;;;53.60;19.88;;;-1.40;99.90;;;;;;6209504;23;20023;-87
2022/12/17 18:19:21;;;;;;;47.08;20.95;;;-1.40;99.90;;;;;;6204543;23;20476;-89
2022/12/17 18:21:48;;;;;;;50.47;19.52;;;-1.40;99.90;;;;;;6189258;23;20016;-87
2022/12/17 18:24:17;;;;;;;52.95;20.48;;;-1.40;99.90;;;;;;6189990;23;20059;-87
2022/12/17 18:26:44;;;;;;;44.17;18.20;;;-1.40;99.90;;;;;;6190490;23;20047;-88
2022/12/17 18:29:22;;;;;;;55.80;20.38;;;-1.40;99.90;;;;;;6188908;23;20016;-88
2022/12/17 18:31:48;;;;;;;50.20;19.80;;;-1.40;99.90;;;;;;6215021;23;20006;-88
2022/12/17 18:34:15;;;;;;;48.65;20.25;;;-1.40;99.90;;;;;;6216004;23;20024;-89
2022/12/17 18:36:43;;;;;;;43.67;18.60;;;-1.50;99.90;;;;;;6216174;23;20013;-88
2022/12/17 18:39:21;;;;;;;49.85;19.70;;;-1.50;99.90;;;;;;6213712;23;20472;-88
2022/12/17 18:44:33;;;;;;;56.65;22.55;;;-1.60;99.90;;;;;;6186902;23;20025;-89
2022/12/17 18:46:59;;;;;;;59.15;23.20;;;-1.50;99.90;;;;;;6189808;23;20027;-90
2022/12/17 18:49:25;;;;;;;61.53;22.98;;;-1.50;99.90;;;;;;6164834;23;20016;-90
2022/12/17 18:51:53;;;;;;;59.35;24.90;;;-1.60;99.90;;;;;;6188331;23;20039;-89
2022/12/17 18:54:22;;;;;;;54.40;22.52;;;-1.50;99.90;;;;;;6216911;23;20013;-93
2022/12/17 18:56:48;;;;;;;52.90;23.13;;;-1.50;99.90;;;;;;6192101;23;20163;-94
2022/12/17 18:59:17;;;;;;;62.08;25.02;;;-1.50;99.90;;;;;;6164960;23;20012;-94
2022/12/17 19:01:43;;;;;;;54.40;21.90;;;-1.60;99.90;;;;;;6191380;23;20013;-93
2022/12/17 19:04:11;;;;;;;60.15;24.13;;;-1.50;99.90;;;;;;6165982;23;20044;-94
2022/12/17 19:06:38;;;;;;;57.03;22.13;;;-1.60;99.90;;;;;;6166446;23;20019;-94
2022/12/17 19:09:06;;;;;;;57.53;20.50;;;-1.40;99.90;;;;;;6190666;23;20020;-92
2022/12/17 19:11:32;;;;;;;60.65;23.67;;;-1.60;99.90;;;;;;6191712;23;20027;-93
2022/12/17 19:13:58;;;;;;;58.13;23.52;;;-1.60;99.90;;;;;;6165666;23;20009;-92
2022/12/17 19:16:25;;;;;;;65.38;25.45;;;-1.60;99.90;;;;;;6165189;23;20039;-92
2022/12/17 19:18:56;;;;;;;64.47;26.20;;;-1.60;99.90;;;;;;6166615;23;20394;-93
2022/12/17 19:21:23;;;;;;;54.65;23.30;;;-1.60;99.90;;;;;;6178132;23;20020;-91
2022/12/17 19:23:49;;;;;;;56.80;24.65;;;-1.50;99.90;;;;;;6178654;23;20016;-94
2022/12/17 19:26:19;;;;;;;52.95;23.65;;;-1.60;99.90;;;;;;6166909;23;20070;-92
2022/12/17 19:28:47;;;;;;;52.63;20.92;;;-1.60;99.90;;;;;;6170990;23;20021;-92
2022/12/17 19:31:14;;;;;;;59.92;23.45;;;-1.60;99.90;;;;;;6192586;23;20019;-94
2022/12/17 19:33:40;;;;;;;68.70;27.20;;;-1.60;99.90;;;;;;6160085;23;20017;-93
2022/12/17 19:36:09;;;;;;;66.70;25.13;;;-1.60;99.90;;;;;;6156354;23;20044;-92
2022/12/17 19:38:35;;;;;;;64.03;26.70;;;-1.60;99.90;;;;;;6157519;23;20442;-94
2022/12/17 19:41:22;;;;;;;59.95;25.70;;;-1.60;99.90;;;;;;6158595;23;20050;-91
2022/12/17 19:43:54;;;;;;;60.05;23.15;;;-1.60;99.90;;;;;;6159161;23;20343;-93
2022/12/17 19:46:20;;;;;;;52.15;23.40;;;-1.60;99.90;;;;;;6159420;23;20013;-93
2022/12/17 19:48:47;;;;;;;59.50;22.50;;;-1.60;99.90;;;;;;6159795;23;20024;-93
2022/12/17 19:51:14;;;;;;;52.88;21.05;;;-1.60;99.90;;;;;;6159155;23;20100;-94
2022/12/17 19:53:41;;;;;;;55.88;20.65;;;-1.60;99.90;;;;;;6184477;23;20016;-93
2022/12/17 19:56:28;;;;;;;54.50;20.48;;;-1.60;99.90;;;;;;6182899;23;20096;-93
2022/12/17 19:59:00;;;;;;;48.50;17.58;;;-1.70;99.90;;;;;;6184194;23;20013;-94
2022/12/17 20:01:42;;;;;;;49.05;18.23;;;-1.70;99.90;;;;;;6184347;23;20088;-94
2022/12/17 20:04:10;;;;;;;40.72;17.20;;;-1.80;99.90;;;;;;6158734;23;20009;-95
2022/12/17 20:06:35;;;;;;;53.20;19.15;;;-1.80;99.90;;;;;;6159231;23;20099;-93
2022/12/17 20:09:03;;;;;;;45.72;17.55;;;-1.80;99.90;;;;;;6184298;23;20454;-95
2022/12/17 20:11:31;;;;;;;54.55;20.63;;;-1.90;99.90;;;;;;6158503;23;20566;-91
2022/12/17 20:14:25;;;;;;;48.85;20.23;;;-1.80;99.90;;;;;;6184132;23;20074;-92
2022/12/17 20:16:56;;;;;;;52.35;18.35;;;-1.80;99.90;;;;;;6186257;23;20009;-92
2022/12/17 20:19:24;;;;;;;53.80;20.65;;;-1.80;99.90;;;;;;6184822;23;20451;-91
2022/12/17 20:21:51;;;;;;;34.75;14.07;;;-1.80;99.90;;;;;;6186032;23;20005;-91
2022/12/17 20:24:17;;;;;;;49.55;19.52;;;-1.80;99.90;;;;;;6159081;23;20075;-91
2022/12/17 20:26:43;;;;;;;62.33;23.35;;;-1.80;99.90;;;;;;6185031;23;20040;-91
2022/12/17 20:29:09;;;;;;;62.72;24.38;;;-1.80;99.90;;;;;;6156778;23;20032;-89
2022/12/17 20:31:35;;;;;;;65.93;22.08;;;-1.80;99.90;;;;;;6184124;23;20367;-89
2022/12/17 20:34:03;;;;;;;57.40;20.75;;;-1.80;99.90;;;;;;6209564;23;20044;-91
2022/12/17 20:36:30;;;;;;;53.65;19.67;;;-1.80;99.90;;;;;;6184769;23;20017;-91
2022/12/17 20:38:56;;;;;;;51.83;20.38;;;-1.80;99.90;;;;;;6158837;23;20017;-90
2022/12/17 20:41:24;;;;;;;53.92;21.67;;;-1.90;99.90;;;;;;6184117;23;20013;-90
2022/12/17 20:43:51;;;;;;;65.07;21.35;;;-1.90;99.90;;;;;;6183500;23;20048;-89
2022/12/17 20:46:18;;;;;;;60.30;21.33;;;-1.90;99.90;;;;;;6184028;23;20086;-92
2022/12/17 20:48:44;;;;;;;51.92;21.02;;;-1.90;99.90;;;;;;6188106;23;20028;-91
2022/12/17 20:51:18;;;;;;;50.75;21.20;;;-1.90;99.90;;;;;;6187137;23;20016;-90
2022/12/17 20:53:44;;;;;;;57.13;20.65;;;-2.00;99.90;;;;;;6184184;23;20019;-92
2022/12/17 20:56:12;;;;;;;48.00;18.13;;;-2.00;99.90;;;;;;6184573;23;20112;-91
2022/12/17 20:58:39;;;;;;;57.15;20.52;;;-2.00;99.90;;;;;;6184018;23;20020;-90
2022/12/17 21:01:10;;;;;;;53.05;21.20;;;-2.00;99.90;;;;;;6158031;23;20592;-91
2022/12/17 21:03:37;;;;;;;55.20;20.30;;;-2.00;99.90;;;;;;6185034;23;20015;-92
2022/12/17 21:06:04;;;;;;;61.95;23.35;;;-2.00;99.90;;;;;;6185206;23;20013;-88
2022/12/17 21:08:31;;;;;;;60.70;23.17;;;-2.10;99.90;;;;;;6184224;23;20434;-89
2022/12/17 21:10:56;;;;;;;57.53;21.40;;;-2.00;99.90;;;;;;6184125;23;20470;-90
2022/12/17 21:13:28;;;;;;;55.58;22.88;;;-2.00;99.90;;;;;;6185671;23;20013;-89
2022/12/17 21:15:55;;;;;;;53.58;19.55;;;-2.00;99.90;;;;;;6171039;23;20032;-92
2022/12/17 21:18:20;;;;;;;55.65;20.20;;;-2.00;99.90;;;;;;6188505;23;20017;-90
2022/12/17 21:20:58;;;;;;;59.42;21.63;;;-2.00;99.90;;;;;;6184310;23;20032;-90
2022/12/17 21:23:25;;;;;;;63.63;21.27;;;-2.00;99.90;;;;;;6183675;23;20017;-89
2022/12/17 21:26:05;;;;;;;64.55;25.75;;;-2.10;99.90;;;;;;6186246;23;20009;-89
2022/12/17 21:28:32;;;;;;;59.95;21.52;;;-2.00;99.90;;;;;;6159624;23;20037;-89
2022/12/17 21:30:59;;;;;;;56.63;20.85;;;-2.10;99.90;;;;;;6182724;23;20013;-89
2022/12/17 21:33:28;;;;;;;49.80;18.75;;;-2.10;99.90;;;;;;6182947;23;20460;-88
2022/12/17 21:36:02;;;;;;;48.60;17.10;;;-2.20;99.90;;;;;;6184169;23;20084;-88
2022/12/17 21:38:31;;;;;;;52.17;18.25;;;-2.20;99.90;;;;;;6183153;23;20016;-89
2022/12/17 21:41:04;;;;;;;53.42;19.00;;;-2.20;99.90;;;;;;6183624;23;20013;-89
2022/12/17 21:43:30;;;;;;;49.22;19.63;;;-2.10;99.90;;;;;;6183994;23;20023;-88
2022/12/17 21:45:56;;;;;;;56.58;20.58;;;-2.20;99.90;;;;;;6208030;23;20076;-88
2022/12/17 21:48:22;;;;;;;62.90;21.23;;;-2.20;99.90;;;;;;6158490;23;20330;-90
2022/12/17 21:50:48;;;;;;;57.25;21.08;;;-2.20;99.90;;;;;;6182252;23;20040;-88
2022/12/17 21:53:14;;;;;;;57.08;19.90;;;-2.20;99.90;;;;;;6183783;23;20020;-88
2022/12/17 21:55:40;;;;;;;54.40;19.90;;;-2.20;99.90;;;;;;6158678;23;20657;-88
2022/12/17 21:58:07;;;;;;;52.13;19.67;;;-2.20;99.90;;;;;;6183417;23;20021;-90
2022/12/17 22:00:35;;;;;;;43.05;16.70;;;-2.10;99.90;;;;;;6181846;23;20016;-90
2022/12/17 22:03:01;;;;;;;50.83;19.40;;;-2.30;99.90;;;;;;6182825;23;20097;-90
2022/12/17 22:05:27;;;;;;;50.17;18.48;;;-2.30;99.90;;;;;;6183133;23;20017;-89
2022/12/17 22:07:53;;;;;;;53.17;18.95;;;-2.30;99.90;;;;;;6183843;23;20013;-90
2022/12/17 22:10:19;;;;;;;60.08;21.80;;;-2.30;99.90;;;;;;6184125;23;20017;-89
2022/12/17 22:15:32;;;;;;;46.25;17.00;;;-2.30;99.90;;;;;;6185372;23;20338;-90
2022/12/17 22:17:57;;;;;;;53.55;19.60;;;-2.30;99.90;;;;;;6184006;23;20358;-89
2022/12/17 22:20:23;;;;;;;50.97;20.75;;;-2.30;99.90;;;;;;6183550;23;20020;-90
2022/12/17 22:22:48;;;;;;;46.97;16.60;;;-2.40;99.90;;;;;;6184904;23;20017;-89
2022/12/17 22:25:15;;;;;;;48.22;17.13;;;-2.40;99.90;;;;;;6185529;23;20458;-89
2022/12/17 22:27:41;;;;;;;48.55;18.00;;;-2.40;99.90;;;;;;6184063;23;20013;-89
2022/12/17 22:32:59;;;;;;;43.22;16.25;;;-2.40;99.90;;;;;;6181466;23;20061;-90
2022/12/17 22:35:26;;;;;;;46.03;15.15;;;-2.40;99.90;;;;;;6208478;23;20035;-89
2022/12/17 22:37:52;;;;;;;46.92;18.15;;;-2.40;99.90;;;;;;6182928;23;20021;-90
2022/12/17 22:40:21;;;;;;;44.90;16.98;;;-2.40;99.90;;;;;;6183155;23;20020;-90
2022/12/17 22:45:32;;;;;;;39.83;14.35;;;-2.50;99.90;;;;;;6183147;23;20021;-89
2022/12/17 22:47:57;;;;;;;50.67;19.00;;;-2.50;99.90;;;;;;6207972;23;20083;-89
2022/12/17 22:50:23;;;;;;;49.30;18.42;;;-2.50;99.90;;;;;;6182677;23;20013;-89
2022/12/17 22:52:49;;;;;;;51.42;18.55;;;-2.60;99.90;;;;;;6182313;23;20013;-90
2022/12/17 22:55:15;;;;;;;54.88;19.77;;;-2.60;99.90;;;;;;6183023;23;20032;-89
2022/12/17 22:57:40;;;;;;;45.92;17.60;;;-2.60;99.90;;;;;;6184186;23;20088;-90
2022/12/17 23:00:16;;;;;;;44.80;16.95;;;-2.70;99.90;;;;;;6181979;23;20017;-88
2022/12/17 23:02:42;;;;;;;33.90;11.70;;;-2.70;99.90;;;;;;6182980;23;20009;-90
2022/12/17 23:05:08;;;;;;;45.35;17.00;;;-2.60;99.90;;;;;;6182023;23;20384;-88
2022/12/17 23:07:34;;;;;;;47.70;17.90;;;-2.60;99.90;;;;;;6185489;23;20062;-88
2022/12/17 23:10:00;;;;;;;43.97;16.77;;;-2.60;99.90;;;;;;6191965;23;20040;-89
2022/12/17 23:15:10;;;;;;;49.67;17.98;;;-2.60;99.90;;;;;;6182495;23;20021;-89
2022/12/17 23:17:35;;;;;;;40.60;13.85;;;-2.50;99.90;;;;;;6186123;23;20013;-90
2022/12/17 23:20:01;;;;;;;44.13;14.98;;;-2.60;99.90;;;;;;6184826;23;20020;-88
2022/12/17 23:22:27;;;;;;;48.28;19.70;;;-2.60;99.90;;;;;;6186000;23;20334;-89
2022/12/17 23:24:52;;;;;;;49.15;17.80;;;-2.70;99.90;;;;;;6183403;23;20099;-89
2022/12/17 23:27:18;;;;;;;53.03;16.85;;;-2.70;99.90;;;;;;6183338;23;20466;-88
2022/12/17 23:29:44;;;;;;;43.90;15.00;;;-2.70;99.90;;;;;;6182732;23;20013;-88
2022/12/17 23:32:09;;;;;;;38.53;16.00;;;-2.80;99.90;;;;;;6192744;23;20091;-89
2022/12/17 23:34:35;;;;;;;49.67;19.05;;;-2.80;99.90;;;;;;6202938;23;20025;-89
2022/12/17 23:37:00;;;;;;;52.10;19.83;;;-2.80;99.90;;;;;;6202629;23;20027;-87
2022/12/17 23:39:26;;;;;;;47.72;17.88;;;-2.80;99.90;;;;;;6231462;23;20047;-89
2022/12/17 23:41:53;;;;;;;56.55;20.20;;;-2.80;99.90;;;;;;6204697;23;20015;-88
2022/12/17 23:44:19;;;;;;;46.10;16.23;;;-2.80;99.90;;;;;;6202195;23;20009;-88
2022/12/17 23:46:45;;;;;;;53.00;19.20;;;-2.90;99.90;;;;;;6225230;23;20382;-87
2022/12/17 23:49:10;;;;;;;54.03;20.30;;;-2.90;99.90;;;;;;6202293;23;20021;-87
2022/12/17 23:51:36;;;;;;;55.13;20.83;;;-2.90;99.90;;;;;;6208258;23;20023;-88
2022/12/17 23:54:02;;;;;;;63.03;19.80;;;-2.90;99.90;;;;;;6207094;23;20047;-86
2022/12/17 23:56:28;;;;;;;60.72;22.15;;;-2.90;99.90;;;;;;6232462;23;20000;-87
2022/12/17 23:58:56;;;;;;;70.20;21.75;;;-2.70;99.90;;;;;;6227951;23;20072;-88
